Kezdőlap
METAR-TAF:

METAR-TAF

Repülőterek :

Coatesville, Pennsylvania, Amerikai Egyesült Államok

földrajzi szélesség: 39-58-44N, földrajzi hosszúság: 075-51-56W, magasság: 201 m

Jelenlegi meteorológiai megfigyelések

A jelentés 12 perccel ezelõtt készült, 22:15 UTC
Dél-délkeleti szél 8 kt széllökések: 14 kt
Hőmérséklet -2°C
Páratartalom 93%
Légköri nyomás 1017 hPa
Látótávolság: 3.2 km
Szórványos felhőzet 1200 lábon
Szakadozott felhőzet 1900 lábon
Borult 3200 lábon
enyhe havazás

METAR: KMQS 182215Z AUTO 15008G14KT 2SM -SN SCT012 BKN019 OVC032 M02/M03 A3003 RMK AO2

Idő: 17:27 (22:27 UTC)


TAF: hiányzik

Meteorológiai megfigyelések és előrejelzések több, mint 4000 repülőtéren (METAR és TAF jelentéseket).

A térképen piros és sárga pontok jelzik az elérhető meteorológiai állomásokat.

Mozgassa az egeret a pont fölött, hogy megjelenjen az állomás neve.

Azután kattintson az időjárási megfigyelések és előrejelzések megtekintéséhez.

A térkép megváltoztatása: kattintson a fekete keresztel jelölt zöld gombra ráközelítéshez, a vonallal jelölt zöld gombra távolításhoz, vagy a zöld nyilakra a szomszédos térképek eléréséhez.


METAR-TAF: